createdAt,value
2023-02-08T00:00:28.218Z,1013.62
2023-02-08T00:01:28.215Z,1013.67
2023-02-08T00:02:28.190Z,1013.60
2023-02-08T00:03:28.192Z,1013.64
2023-02-08T00:04:29.191Z,1013.71
2023-02-08T00:05:28.156Z,1013.69
2023-02-08T00:06:28.132Z,1013.64
2023-02-08T00:07:28.149Z,1013.65
2023-02-08T00:08:28.124Z,1013.65
2023-02-08T00:09:28.116Z,1013.62
2023-02-08T00:10:28.114Z,1013.70
2023-02-08T00:11:28.094Z,1013.64
2023-02-08T00:12:28.076Z,1013.69
2023-02-08T00:13:28.119Z,1013.70
2023-02-08T00:14:28.079Z,1013.70
2023-02-08T00:15:28.058Z,1013.65
2023-02-08T00:16:28.064Z,1013.65
2023-02-08T00:17:28.040Z,1013.66
2023-02-08T00:18:28.012Z,1013.72
2023-02-08T00:19:28.008Z,1013.61
2023-02-08T00:20:28.044Z,1013.69
2023-02-08T00:21:28.021Z,1013.60
2023-02-08T00:22:27.969Z,1013.62
2023-02-08T00:23:27.988Z,1013.62
2023-02-08T00:24:27.965Z,1013.62
2023-02-08T00:25:27.957Z,1013.66
2023-02-08T00:26:27.966Z,1013.65
2023-02-08T00:27:27.952Z,1013.63
2023-02-08T00:28:27.918Z,1013.61
2023-02-08T00:29:27.913Z,1013.51
2023-02-08T00:30:27.928Z,1013.53
2023-02-08T00:31:27.988Z,1013.49
2023-02-08T00:32:27.874Z,1013.56
2023-02-08T00:33:27.886Z,1013.51
2023-02-08T00:34:27.903Z,1013.54
2023-02-08T00:35:27.859Z,1013.46
2023-02-08T00:36:27.825Z,1013.48
2023-02-08T00:37:27.823Z,1013.47
2023-02-08T00:38:27.831Z,1013.47
2023-02-08T00:39:27.813Z,1013.43
2023-02-08T00:40:27.816Z,1013.47
2023-02-08T00:41:27.791Z,1013.47
2023-02-08T00:42:27.762Z,1013.46
2023-02-08T00:43:27.777Z,1013.38
2023-02-08T00:44:27.798Z,1013.48
2023-02-08T00:45:27.762Z,1013.48
2023-02-08T00:46:27.762Z,1013.46
2023-02-08T00:47:27.756Z,1013.46
2023-02-08T00:48:27.706Z,1013.52
2023-02-08T00:49:27.708Z,1013.49
2023-02-08T00:50:27.731Z,1013.46
2023-02-08T00:51:27.692Z,1013.48
2023-02-08T00:52:27.673Z,1013.46
2023-02-08T00:53:27.663Z,1013.52
2023-02-08T00:54:27.687Z,1013.47
2023-02-08T00:55:27.644Z,1013.52
2023-02-08T00:56:27.662Z,1013.45
2023-02-08T00:57:27.630Z,1013.48
2023-02-08T00:58:27.602Z,1013.48
2023-02-08T00:59:27.615Z,1013.50
2023-02-08T01:00:27.656Z,1013.47
2023-02-08T01:01:27.621Z,1013.47
2023-02-08T01:02:27.576Z,1013.51
2023-02-08T01:03:27.573Z,1013.44
2023-02-08T01:04:27.591Z,1013.44
2023-02-08T01:05:27.561Z,1013.47
2023-02-08T01:06:27.524Z,1013.46
2023-02-08T01:07:27.548Z,1013.43
2023-02-08T01:08:27.546Z,1013.44
2023-02-08T01:09:27.545Z,1013.54
2023-02-08T01:10:27.494Z,1013.49
2023-02-08T01:11:27.508Z,1013.38
2023-02-08T01:12:27.468Z,1013.39
2023-02-08T01:13:27.469Z,1013.41
2023-02-08T01:14:27.498Z,1013.37
2023-02-08T01:15:27.459Z,1013.42
2023-02-08T01:16:27.470Z,1013.44
2023-02-08T01:17:27.449Z,1013.43
2023-02-08T01:18:27.448Z,1013.42
2023-02-08T01:19:27.417Z,1013.39
2023-02-08T01:20:27.430Z,1013.34
2023-02-08T01:21:27.419Z,1013.35
2023-02-08T01:22:27.361Z,1013.35
2023-02-08T01:23:27.364Z,1013.41
2023-02-08T01:24:27.383Z,1013.41
2023-02-08T01:25:27.362Z,1013.40
2023-02-08T01:26:27.325Z,1013.38
2023-02-08T01:27:27.350Z,1013.27
2023-02-08T01:28:27.310Z,1013.28
2023-02-08T01:29:27.309Z,1013.28
2023-02-08T01:30:27.422Z,1013.20
2023-02-08T01:31:27.317Z,1013.26
2023-02-08T01:32:27.272Z,1013.22
2023-02-08T01:33:27.276Z,1013.20
2023-02-08T01:34:27.287Z,1013.26
2023-02-08T01:35:27.268Z,1013.20
2023-02-08T01:36:27.251Z,1013.23
2023-02-08T01:37:27.230Z,1013.21
2023-02-08T01:38:27.244Z,1013.21
2023-02-08T01:39:27.240Z,1013.22
2023-02-08T01:40:27.212Z,1013.23
2023-02-08T01:41:27.199Z,1013.20
2023-02-08T01:42:27.208Z,1013.19
2023-02-08T01:43:27.182Z,1013.20
2023-02-08T01:44:27.187Z,1013.24
2023-02-08T01:45:27.193Z,1013.17
2023-02-08T01:46:27.131Z,1013.20
2023-02-08T01:47:27.140Z,1013.21
2023-02-08T01:48:27.175Z,1013.24
2023-02-08T01:49:27.135Z,1013.22
2023-02-08T01:50:27.112Z,1013.20
2023-02-08T01:51:27.131Z,1013.16
2023-02-08T01:52:27.069Z,1013.21
2023-02-08T01:53:27.081Z,1013.24
2023-02-08T01:54:27.090Z,1013.17
2023-02-08T01:55:27.065Z,1013.21
2023-02-08T01:56:27.059Z,1013.16
2023-02-08T01:57:27.047Z,1013.17
2023-02-08T01:58:27.049Z,1013.15
2023-02-08T01:59:27.004Z,1013.11
2023-02-08T02:00:27.039Z,1013.11
2023-02-08T02:01:27.044Z,1013.07
2023-02-08T02:02:26.975Z,1013.12
2023-02-08T02:03:27.000Z,1013.08
2023-02-08T02:04:27.076Z,1013.07
2023-02-08T02:05:26.960Z,1013.08
2023-02-08T02:06:26.949Z,1013.07
2023-02-08T02:07:26.957Z,1013.06
2023-02-08T02:08:26.964Z,1013.10
2023-02-08T02:09:26.931Z,1013.03
2023-02-08T02:10:26.896Z,1013.05
2023-02-08T02:11:27.911Z,1013.05
2023-02-08T02:12:26.921Z,1013.04
2023-02-08T02:13:26.900Z,1013.08
2023-02-08T02:14:26.862Z,1013.11
2023-02-08T02:15:26.891Z,1013.06
2023-02-08T02:16:26.878Z,1013.02
2023-02-08T02:17:26.848Z,1013.08
2023-02-08T02:18:26.880Z,1013.03
2023-02-08T02:19:26.845Z,1013.00
2023-02-08T02:20:26.805Z,1013.05
2023-02-08T02:21:26.842Z,1013.00
2023-02-08T02:22:26.863Z,1012.99
2023-02-08T02:23:26.774Z,1012.99
2023-02-08T02:24:26.794Z,1013.01
2023-02-08T02:25:26.772Z,1013.02
2023-02-08T02:26:26.761Z,1012.97
2023-02-08T02:27:26.758Z,1012.98
2023-02-08T02:28:26.757Z,1012.95
2023-02-08T02:29:26.734Z,1012.91
2023-02-08T02:30:26.733Z,1012.93
2023-02-08T02:31:26.819Z,1012.96
2023-02-08T02:32:26.694Z,1013.00
2023-02-08T02:33:26.690Z,1013.01
2023-02-08T02:34:26.701Z,1013.00
2023-02-08T02:35:26.683Z,1013.03
2023-02-08T02:36:26.680Z,1013.04
2023-02-08T02:37:26.652Z,1013.08
2023-02-08T02:38:27.721Z,1013.02
2023-02-08T02:39:26.605Z,1013.08
2023-02-08T02:40:26.629Z,1012.99
2023-02-08T02:41:26.615Z,1012.97
2023-02-08T02:42:26.606Z,1013.03
2023-02-08T02:43:26.590Z,1012.99
2023-02-08T02:44:26.599Z,1013.03
2023-02-08T02:45:26.590Z,1012.98
2023-02-08T02:46:26.554Z,1013.10
2023-02-08T02:47:26.581Z,1013.01
2023-02-08T02:48:26.522Z,1013.06
2023-02-08T02:49:27.533Z,1013.10
2023-02-08T02:50:26.546Z,1013.12
2023-02-08T02:51:26.555Z,1013.12
2023-02-08T02:52:26.504Z,1013.05
2023-02-08T02:53:26.496Z,1013.16
2023-02-08T02:54:26.508Z,1013.16
2023-02-08T02:55:26.484Z,1013.15
2023-02-08T02:56:26.487Z,1013.20
2023-02-08T02:57:26.483Z,1013.17
2023-02-08T02:58:26.424Z,1013.22
2023-02-08T02:59:26.437Z,1013.20
2023-02-08T03:00:26.463Z,1013.24
2023-02-08T03:01:26.449Z,1013.19
2023-02-08T03:02:26.389Z,1013.27
2023-02-08T03:03:26.417Z,1013.18
2023-02-08T03:04:26.394Z,1013.19
2023-02-08T03:05:26.369Z,1013.20
2023-02-08T03:06:26.399Z,1013.21
2023-02-08T03:07:26.367Z,1013.18
2023-02-08T03:08:26.328Z,1013.23
2023-02-08T03:09:26.352Z,1013.14
2023-02-08T03:10:26.340Z,1013.20
2023-02-08T03:11:26.328Z,1013.11
2023-02-08T03:12:26.312Z,1013.11
2023-02-08T03:13:26.293Z,1013.09
2023-02-08T03:14:26.305Z,1013.20
2023-02-08T03:15:26.297Z,1013.21
2023-02-08T03:16:26.280Z,1013.18
2023-02-08T03:17:26.271Z,1013.15
2023-02-08T03:18:26.277Z,1013.14
2023-02-08T03:19:26.231Z,1013.17
2023-02-08T03:20:26.259Z,1013.19
2023-02-08T03:21:26.234Z,1013.13
2023-02-08T03:22:26.192Z,1013.18
2023-02-08T03:23:26.194Z,1013.21
2023-02-08T03:24:26.227Z,1013.13
2023-02-08T03:25:26.194Z,1013.25
2023-02-08T03:26:26.164Z,1013.21
2023-02-08T03:27:26.174Z,1013.24
2023-02-08T03:28:26.140Z,1013.28
2023-02-08T03:29:26.133Z,1013.21
2023-02-08T03:30:26.153Z,1013.24
2023-02-08T03:31:26.232Z,1013.23
2023-02-08T03:32:27.125Z,1013.27
2023-02-08T03:33:26.092Z,1013.33
2023-02-08T03:34:26.100Z,1013.22
2023-02-08T03:35:26.063Z,1013.23
2023-02-08T03:36:26.085Z,1013.25
2023-02-08T03:37:26.076Z,1013.24
2023-02-08T03:38:26.038Z,1013.26
2023-02-08T03:39:26.038Z,1013.24
2023-02-08T03:40:26.057Z,1013.24
2023-02-08T03:41:26.034Z,1013.29
2023-02-08T03:42:26.016Z,1013.25
2023-02-08T03:43:26.006Z,1013.29
2023-02-08T03:44:26.023Z,1013.25
2023-02-08T03:45:25.981Z,1013.30
2023-02-08T03:46:26.013Z,1013.31
2023-02-08T03:47:25.966Z,1013.28
2023-02-08T03:48:25.982Z,1013.31
2023-02-08T03:49:25.940Z,1013.33
2023-02-08T03:50:25.916Z,1013.33
2023-02-08T03:51:25.939Z,1013.25
2023-02-08T03:52:25.891Z,1013.34
2023-02-08T03:53:25.920Z,1013.26
2023-02-08T03:54:25.910Z,1013.26
2023-02-08T03:55:25.876Z,1013.28
2023-02-08T03:56:25.864Z,1013.24
2023-02-08T03:57:25.847Z,1013.22
2023-02-08T03:58:25.859Z,1013.26
2023-02-08T03:59:25.827Z,1013.29
2023-02-08T04:00:25.850Z,1013.20
2023-02-08T04:01:25.841Z,1013.19
2023-02-08T04:02:25.809Z,1013.23
2023-02-08T04:03:25.797Z,1013.23
2023-02-08T04:04:25.812Z,1013.21
2023-02-08T04:05:25.791Z,1013.26
2023-02-08T04:06:25.761Z,1013.17
2023-02-08T04:07:25.780Z,1013.20
2023-02-08T04:08:25.756Z,1013.23
2023-02-08T04:09:25.742Z,1013.28
2023-02-08T04:10:25.740Z,1013.19
2023-02-08T04:11:25.729Z,1013.24
2023-02-08T04:12:25.696Z,1013.22
2023-02-08T04:13:25.690Z,1013.13
2023-02-08T04:14:25.692Z,1013.22
2023-02-08T04:15:26.674Z,1013.16
2023-02-08T04:16:25.644Z,1013.17
2023-02-08T04:17:25.672Z,1013.20
2023-02-08T04:18:25.660Z,1013.25
2023-02-08T04:19:25.618Z,1013.22
2023-02-08T04:20:26.606Z,1013.21
2023-02-08T04:21:25.606Z,1013.19
2023-02-08T04:22:25.607Z,1013.22
2023-02-08T04:23:26.585Z,1013.28
2023-02-08T04:24:25.607Z,1013.30
2023-02-08T04:25:25.572Z,1013.27
2023-02-08T04:26:25.547Z,1013.30
2023-02-08T04:27:25.559Z,1013.21
2023-02-08T04:28:25.554Z,1013.21
2023-02-08T04:29:25.546Z,1013.20
2023-02-08T04:30:25.514Z,1013.25
2023-02-08T04:31:25.623Z,1013.25
2023-02-08T04:32:25.502Z,1013.23
2023-02-08T04:33:25.500Z,1013.33
2023-02-08T04:34:25.515Z,1013.28
2023-02-08T04:35:25.477Z,1013.34
2023-02-08T04:36:25.453Z,1013.28
2023-02-08T04:37:25.472Z,1013.32
2023-02-08T04:38:25.466Z,1013.27
2023-02-08T04:39:25.448Z,1013.25
2023-02-08T04:40:25.463Z,1013.27
2023-02-08T04:41:25.429Z,1013.27
2023-02-08T04:42:25.414Z,1013.21
2023-02-08T04:43:25.399Z,1013.19
2023-02-08T04:44:25.441Z,1013.27
2023-02-08T04:45:25.390Z,1013.13
2023-02-08T04:46:25.375Z,1013.13
2023-02-08T04:47:25.397Z,1013.15
2023-02-08T04:48:25.349Z,1013.24
2023-02-08T04:49:25.362Z,1013.12
2023-02-08T04:50:25.344Z,1013.18
2023-02-08T04:51:25.349Z,1013.13
2023-02-08T04:52:25.309Z,1013.15
2023-02-08T04:53:25.313Z,1013.10
2023-02-08T04:54:25.313Z,1013.19
2023-02-08T04:55:25.257Z,1013.10
2023-02-08T04:56:26.295Z,1013.09
2023-02-08T04:57:25.263Z,1013.13
2023-02-08T04:58:25.256Z,1013.11
2023-02-08T04:59:25.251Z,1013.12
2023-02-08T05:00:25.252Z,1013.14
2023-02-08T05:01:25.316Z,1013.18
2023-02-08T05:02:25.191Z,1013.18
2023-02-08T05:03:25.231Z,1013.17
2023-02-08T05:04:25.181Z,1013.17
2023-02-08T05:05:25.204Z,1013.14
2023-02-08T05:06:25.204Z,1013.16
2023-02-08T05:07:25.176Z,1013.23
2023-02-08T05:08:25.166Z,1013.21
2023-02-08T05:09:25.165Z,1013.22
2023-02-08T05:10:25.167Z,1013.17
2023-02-08T05:11:25.114Z,1013.24
2023-02-08T05:12:25.134Z,1013.13
2023-02-08T05:13:25.110Z,1013.20
2023-02-08T05:14:25.092Z,1013.22
2023-02-08T05:15:25.090Z,1013.22
2023-02-08T05:16:25.145Z,1013.25
2023-02-08T05:17:25.069Z,1013.20
2023-02-08T05:18:25.029Z,1013.29
2023-02-08T05:19:25.042Z,1013.23
2023-02-08T05:20:25.077Z,1013.19
2023-02-08T05:21:25.022Z,1013.22
2023-02-08T05:22:24.998Z,1013.18
2023-02-08T05:23:25.049Z,1013.20
2023-02-08T05:24:25.009Z,1013.16
2023-02-08T05:25:24.999Z,1013.18
2023-02-08T05:26:24.950Z,1013.19
2023-02-08T05:27:24.982Z,1013.18
2023-02-08T05:28:24.978Z,1013.10
2023-02-08T05:29:24.954Z,1013.18
2023-02-08T05:30:24.955Z,1012.99
2023-02-08T05:31:25.029Z,1013.04
2023-02-08T05:32:24.921Z,1013.14
2023-02-08T05:33:24.902Z,1013.10
2023-02-08T05:34:24.914Z,1013.12
2023-02-08T05:35:24.886Z,1013.11
2023-02-08T05:36:24.885Z,1013.10
2023-02-08T05:37:24.867Z,1013.10
2023-02-08T05:38:24.837Z,1013.12
2023-02-08T05:39:24.854Z,1013.13
2023-02-08T05:40:24.849Z,1013.14
2023-02-08T05:41:24.829Z,1013.12
2023-02-08T05:42:24.812Z,1013.15
2023-02-08T05:43:24.826Z,1013.17
2023-02-08T05:44:24.777Z,1013.25
2023-02-08T05:45:24.767Z,1013.23
2023-02-08T05:46:24.796Z,1013.31
2023-02-08T05:47:24.775Z,1013.23
2023-02-08T05:48:24.740Z,1013.27
2023-02-08T05:49:24.735Z,1013.25
2023-02-08T05:50:24.757Z,1013.30
2023-02-08T05:51:24.720Z,1013.30
2023-02-08T05:52:24.709Z,1013.34
2023-02-08T05:53:24.694Z,1013.25
2023-02-08T05:54:24.704Z,1013.30
2023-02-08T05:55:24.686Z,1013.27
2023-02-08T05:56:24.675Z,1013.24
2023-02-08T05:57:24.672Z,1013.26
2023-02-08T05:58:24.673Z,1013.25
2023-02-08T05:59:24.624Z,1013.32
2023-02-08T06:00:24.643Z,1013.28
2023-02-08T06:01:24.658Z,1013.25
2023-02-08T06:02:24.594Z,1013.29
2023-02-08T06:03:24.593Z,1013.36
2023-02-08T06:04:24.633Z,1013.41
2023-02-08T06:05:24.587Z,1013.35
2023-02-08T06:06:24.573Z,1013.37
2023-02-08T06:07:24.574Z,1013.35
2023-02-08T06:08:24.537Z,1013.41
2023-02-08T06:09:24.541Z,1013.45
2023-02-08T06:10:24.540Z,1013.38
2023-02-08T06:11:24.520Z,1013.37
2023-02-08T06:12:24.492Z,1013.35
2023-02-08T06:13:24.513Z,1013.39
2023-02-08T06:14:24.514Z,1013.34
2023-02-08T06:15:24.473Z,1013.34
2023-02-08T06:16:24.496Z,1013.32
2023-02-08T06:17:24.478Z,1013.32
2023-02-08T06:18:24.450Z,1013.32
2023-02-08T06:19:24.434Z,1013.33
2023-02-08T06:20:24.474Z,1013.33
2023-02-08T06:21:24.722Z,1013.39
2023-02-08T06:22:25.390Z,1013.37
2023-02-08T06:23:24.406Z,1013.38
2023-02-08T06:24:24.420Z,1013.33
2023-02-08T06:25:24.404Z,1013.36
2023-02-08T06:26:24.362Z,1013.35
2023-02-08T06:27:24.361Z,1013.40
2023-02-08T06:28:56.277Z,1013.39
2023-02-08T06:29:24.329Z,1013.40
2023-02-08T06:30:25.346Z,1013.44
2023-02-08T06:31:24.332Z,1013.47
2023-02-08T06:32:24.369Z,1013.44
2023-02-08T06:33:24.319Z,1013.42
2023-02-08T06:34:24.332Z,1013.44
2023-02-08T06:35:24.287Z,1013.42
2023-02-08T06:36:24.297Z,1013.50
2023-02-08T06:37:24.302Z,1013.45
2023-02-08T06:38:24.258Z,1013.45
2023-02-08T06:39:24.287Z,1013.46
2023-02-08T06:40:24.269Z,1013.46
2023-02-08T06:41:24.229Z,1013.43
2023-02-08T06:42:24.217Z,1013.39
2023-02-08T06:43:24.221Z,1013.42
2023-02-08T06:44:24.188Z,1013.44
2023-02-08T06:45:24.193Z,1013.43
2023-02-08T06:46:24.211Z,1013.51
2023-02-08T06:47:24.212Z,1013.49
2023-02-08T06:48:24.177Z,1013.47
2023-02-08T06:49:24.147Z,1013.45
2023-02-08T06:50:24.286Z,1013.56
2023-02-08T06:51:25.140Z,1013.54
2023-02-08T06:52:24.111Z,1013.58
2023-02-08T06:53:24.106Z,1013.52
2023-02-08T06:54:24.085Z,1013.64
2023-02-08T06:55:24.106Z,1013.64
2023-02-08T06:56:24.091Z,1013.56
2023-02-08T06:57:24.058Z,1013.67
2023-02-08T06:58:24.051Z,1013.64
2023-02-08T06:59:25.048Z,1013.62
2023-02-08T07:00:24.059Z,1013.67
2023-02-08T07:01:24.103Z,1013.64
2023-02-08T07:02:24.105Z,1013.65
2023-02-08T07:03:24.016Z,1013.62
2023-02-08T07:04:23.996Z,1013.65
2023-02-08T07:05:23.993Z,1013.62
2023-02-08T07:06:23.969Z,1013.55
2023-02-08T07:07:23.962Z,1013.57
2023-02-08T07:08:23.948Z,1013.57
2023-02-08T07:09:23.982Z,1013.55
2023-02-08T07:10:23.940Z,1013.58
2023-02-08T07:11:23.971Z,1013.61
2023-02-08T07:12:23.929Z,1013.62
2023-02-08T07:13:23.930Z,1013.55
2023-02-08T07:14:23.928Z,1013.59
2023-02-08T07:15:23.915Z,1013.60
2023-02-08T07:16:23.918Z,1013.61
2023-02-08T07:17:23.865Z,1013.55
2023-02-08T07:18:23.878Z,1013.61
2023-02-08T07:19:23.865Z,1013.53
2023-02-08T07:20:23.847Z,1013.56
2023-02-08T07:21:23.835Z,1013.51
2023-02-08T07:22:23.812Z,1013.55
2023-02-08T07:23:23.827Z,1013.51
2023-02-08T07:24:23.801Z,1013.55
2023-02-08T07:25:23.815Z,1013.45
2023-02-08T07:26:23.780Z,1013.52
2023-02-08T07:27:25.988Z,1013.41
2023-02-08T07:28:24.767Z,1013.43
2023-02-08T07:29:23.743Z,1013.49
2023-02-08T07:30:23.731Z,1013.45
2023-02-08T07:31:23.770Z,1013.51
2023-02-08T07:32:23.725Z,1013.47
2023-02-08T07:33:23.710Z,1013.41
2023-02-08T07:34:23.691Z,1013.40
2023-02-08T07:35:23.702Z,1013.31
2023-02-08T07:36:23.681Z,1013.34
2023-02-08T07:37:23.672Z,1013.34
2023-02-08T07:38:23.673Z,1013.36
2023-02-08T07:39:23.659Z,1013.35
2023-02-08T07:40:23.649Z,1013.35
2023-02-08T07:41:23.627Z,1013.46
2023-02-08T07:42:23.626Z,1013.36
2023-02-08T07:43:24.252Z,1013.38
2023-02-08T07:44:23.600Z,1013.37
2023-02-08T07:45:23.614Z,1013.28
2023-02-08T07:46:23.628Z,1013.31
2023-02-08T07:47:23.583Z,1013.31
2023-02-08T07:48:23.573Z,1013.30
2023-02-08T07:49:23.573Z,1013.21
2023-02-08T07:50:23.562Z,1013.21
2023-02-08T07:51:23.543Z,1013.14
2023-02-08T07:52:23.526Z,1013.18
2023-02-08T07:53:23.530Z,1013.18
2023-02-08T07:54:23.515Z,1013.11
2023-02-08T07:55:23.517Z,1013.11
2023-02-08T07:56:23.475Z,1013.18
2023-02-08T07:57:24.494Z,1013.15
2023-02-08T07:58:23.479Z,1013.11
2023-02-08T07:59:23.497Z,1013.12
2023-02-08T08:00:23.462Z,1013.17
2023-02-08T08:01:23.698Z,1013.10
2023-02-08T08:02:23.465Z,1013.10
2023-02-08T08:03:23.417Z,1013.04
2023-02-08T08:04:23.439Z,1013.06
2023-02-08T08:05:23.428Z,1013.03
2023-02-08T08:06:23.412Z,1012.97
2023-02-08T08:07:23.387Z,1013.00
2023-02-08T08:08:23.377Z,1012.89
2023-02-08T08:09:23.378Z,1012.95
2023-02-08T08:10:23.374Z,1012.91
2023-02-08T08:11:23.342Z,1012.91
2023-02-08T08:12:23.335Z,1012.95
2023-02-08T08:13:23.344Z,1012.93
2023-02-08T08:14:23.331Z,1012.88
2023-02-08T08:15:23.336Z,1012.93
2023-02-08T08:16:23.380Z,1012.86
2023-02-08T08:17:23.487Z,1012.86
2023-02-08T08:18:23.276Z,1012.87
2023-02-08T08:19:23.271Z,1012.91
2023-02-08T08:20:23.264Z,1012.88
2023-02-08T08:21:23.244Z,1012.83
2023-02-08T08:22:23.246Z,1012.80
2023-02-08T08:23:23.217Z,1012.84
2023-02-08T08:24:23.244Z,1012.86
2023-02-08T08:25:23.210Z,1012.86
2023-02-08T08:26:23.202Z,1012.76
2023-02-08T08:27:23.219Z,1012.77
2023-02-08T08:28:23.330Z,1012.75
2023-02-08T08:29:23.181Z,1012.79
2023-02-08T08:30:23.160Z,1012.77
2023-02-08T08:31:23.251Z,1012.84
2023-02-08T08:32:23.142Z,1012.76
2023-02-08T08:33:23.113Z,1012.77
2023-02-08T08:34:23.107Z,1012.74
2023-02-08T08:35:23.098Z,1012.74
2023-02-08T08:36:23.089Z,1012.81
2023-02-08T08:37:23.102Z,1012.81
2023-02-08T08:38:23.068Z,1012.75
2023-02-08T08:39:24.051Z,1012.67
2023-02-08T08:40:25.133Z,1012.65
2023-02-08T08:41:23.049Z,1012.73
2023-02-08T08:42:23.043Z,1012.71
2023-02-08T08:43:23.007Z,1012.73
2023-02-08T08:44:22.994Z,1012.67
2023-02-08T08:45:23.004Z,1012.68
2023-02-08T08:46:23.006Z,1012.66
2023-02-08T08:47:22.977Z,1012.64
2023-02-08T08:48:22.963Z,1012.64
2023-02-08T08:49:23.969Z,1012.66
2023-02-08T08:50:23.006Z,1012.65
2023-02-08T08:51:22.958Z,1012.61
2023-02-08T08:52:22.934Z,1012.60
2023-02-08T08:53:22.933Z,1012.51
2023-02-08T08:54:22.926Z,1012.57
2023-02-08T08:55:22.907Z,1012.45
2023-02-08T08:56:22.884Z,1012.49
2023-02-08T08:57:22.877Z,1012.50
2023-02-08T08:58:22.848Z,1012.47
2023-02-08T08:59:22.853Z,1012.44
2023-02-08T09:00:22.918Z,1012.49
2023-02-08T09:01:22.874Z,1012.54
2023-02-08T09:02:22.854Z,1012.55
2023-02-08T09:03:22.844Z,1012.53
2023-02-08T09:04:22.783Z,1012.56
2023-02-08T09:05:22.790Z,1012.45
2023-02-08T09:06:22.769Z,1012.47
2023-02-08T09:07:22.757Z,1012.51
2023-02-08T09:08:22.757Z,1012.54
2023-02-08T09:09:22.737Z,1012.53
2023-02-08T09:10:22.726Z,1012.51
2023-02-08T09:11:22.734Z,1012.50
2023-02-08T09:12:22.721Z,1012.52
2023-02-08T09:13:22.692Z,1012.55
2023-02-08T09:14:22.688Z,1012.52
2023-02-08T09:15:22.688Z,1012.61
2023-02-08T09:16:22.784Z,1012.56
2023-02-08T09:17:22.672Z,1012.60
2023-02-08T09:18:22.643Z,1012.63
2023-02-08T09:19:22.650Z,1012.60
2023-02-08T09:20:22.630Z,1012.62
2023-02-08T09:21:22.597Z,1012.61
2023-02-08T09:22:22.601Z,1012.64
2023-02-08T09:23:22.585Z,1012.60
2023-02-08T09:24:22.595Z,1012.68
2023-02-08T09:25:22.561Z,1012.69
2023-02-08T09:26:23.549Z,1012.63
2023-02-08T09:27:22.561Z,1012.68
2023-02-08T09:28:22.580Z,1012.66
2023-02-08T09:29:22.517Z,1012.62
2023-02-08T09:30:22.515Z,1012.66
2023-02-08T09:31:22.616Z,1012.67
2023-02-08T09:32:22.507Z,1012.59
2023-02-08T09:33:22.476Z,1012.58
2023-02-08T09:34:22.464Z,1012.58
2023-02-08T09:35:22.459Z,1012.55
2023-02-08T09:36:22.465Z,1012.56
2023-02-08T09:37:22.453Z,1012.53
2023-02-08T09:38:22.440Z,1012.61
2023-02-08T09:39:22.435Z,1012.64
2023-02-08T09:40:22.423Z,1012.63
2023-02-08T09:41:22.400Z,1012.66
2023-02-08T09:42:22.386Z,1012.65
2023-02-08T09:43:22.383Z,1012.54
2023-02-08T09:44:22.394Z,1012.55
2023-02-08T09:45:22.363Z,1012.60
2023-02-08T09:46:22.389Z,1012.47
2023-02-08T09:47:22.344Z,1012.55
2023-02-08T09:48:22.347Z,1012.54
2023-02-08T09:49:22.340Z,1012.53
2023-02-08T09:50:22.319Z,1012.63
2023-02-08T09:51:22.321Z,1012.57
2023-02-08T09:52:22.935Z,1012.55
2023-02-08T09:53:22.312Z,1012.53
2023-02-08T09:54:22.271Z,1012.61
2023-02-08T09:55:22.271Z,1012.57
2023-02-08T09:56:22.328Z,1012.58
2023-02-08T09:57:22.258Z,1012.55
2023-02-08T09:58:22.242Z,1012.57
2023-02-08T09:59:22.268Z,1012.54
2023-02-08T10:00:22.219Z,1012.52
2023-02-08T10:01:22.266Z,1012.52
2023-02-08T10:02:22.217Z,1012.48
2023-02-08T10:03:22.262Z,1012.51
2023-02-08T10:04:22.211Z,1012.47
2023-02-08T10:05:22.192Z,1012.51
2023-02-08T10:06:22.204Z,1012.48
2023-02-08T10:07:22.159Z,1012.49
2023-02-08T10:08:25.281Z,1012.43
2023-02-08T10:09:23.134Z,1012.43
2023-02-08T10:10:22.112Z,1012.42
2023-02-08T10:11:22.120Z,1012.44
2023-02-08T10:12:22.093Z,1012.41
2023-02-08T10:13:25.677Z,1012.35
2023-02-08T10:14:24.096Z,1012.32
2023-02-08T10:15:22.049Z,1012.39
2023-02-08T10:16:22.070Z,1012.35
2023-02-08T10:17:22.041Z,1012.34
2023-02-08T10:18:22.084Z,1012.23
2023-02-08T10:19:22.014Z,1012.27
2023-02-08T10:20:22.019Z,1012.29
2023-02-08T10:21:22.007Z,1012.30
2023-02-08T10:22:22.016Z,1012.26
2023-02-08T10:23:22.640Z,1012.26
2023-02-08T10:24:23.006Z,1012.25
2023-02-08T10:25:21.971Z,1012.23
2023-02-08T10:26:21.970Z,1012.26
2023-02-08T10:27:22.005Z,1012.22
2023-02-08T10:28:21.982Z,1012.24
2023-02-08T10:29:21.932Z,1012.23
2023-02-08T10:30:21.994Z,1012.20
2023-02-08T10:31:22.089Z,1012.11
2023-02-08T10:32:21.912Z,1012.08
2023-02-08T10:33:21.891Z,1012.06
2023-02-08T10:34:21.874Z,1012.04
2023-02-08T10:35:21.852Z,1012.02
2023-02-08T10:36:21.891Z,1012.06
2023-02-08T10:37:21.864Z,1011.98
2023-02-08T10:38:21.833Z,1012.01
2023-02-08T10:39:21.845Z,1012.01
2023-02-08T10:40:21.819Z,1012.02
2023-02-08T10:41:21.824Z,1011.98
2023-02-08T10:42:21.816Z,1011.94
2023-02-08T10:43:21.778Z,1011.97
2023-02-08T10:44:21.775Z,1011.92
2023-02-08T10:45:24.584Z,1011.88
2023-02-08T10:46:22.747Z,1011.88
2023-02-08T10:47:21.745Z,1011.89
2023-02-08T10:48:21.743Z,1011.87
2023-02-08T10:49:21.724Z,1011.79
2023-02-08T10:50:21.724Z,1011.82
2023-02-08T10:51:21.737Z,1011.75
2023-02-08T10:52:21.688Z,1011.76
2023-02-08T10:53:21.691Z,1011.80
2023-02-08T10:54:21.670Z,1011.83
2023-02-08T10:55:21.715Z,1011.81
2023-02-08T10:56:21.652Z,1011.77
2023-02-08T10:57:21.650Z,1011.74
2023-02-08T10:58:21.630Z,1011.72
2023-02-08T10:59:21.639Z,1011.74
2023-02-08T11:00:21.631Z,1011.69
2023-02-08T11:01:21.669Z,1011.68
2023-02-08T11:02:21.629Z,1011.67
2023-02-08T11:03:21.628Z,1011.74
2023-02-08T11:04:21.599Z,1011.72
2023-02-08T11:05:21.570Z,1011.73
2023-02-08T11:06:21.553Z,1011.68
2023-02-08T11:07:21.574Z,1011.61
2023-02-08T11:08:21.541Z,1011.64
2023-02-08T11:09:21.552Z,1011.62
2023-02-08T11:10:21.512Z,1011.64
2023-02-08T11:11:21.518Z,1011.64
2023-02-08T11:12:21.499Z,1011.56
2023-02-08T11:13:21.498Z,1011.50
2023-02-08T11:14:21.496Z,1011.53
2023-02-08T11:15:21.497Z,1011.56
2023-02-08T11:16:21.500Z,1011.56
2023-02-08T11:17:21.451Z,1011.59
2023-02-08T11:18:21.431Z,1011.52
2023-02-08T11:19:21.448Z,1011.54
2023-02-08T11:20:21.401Z,1011.52
2023-02-08T11:21:21.410Z,1011.54
2023-02-08T11:22:21.392Z,1011.53
2023-02-08T11:23:21.387Z,1011.54
2023-02-08T11:24:21.384Z,1011.47
2023-02-08T11:25:21.351Z,1011.45
2023-02-08T11:26:21.388Z,1011.41
2023-02-08T11:27:21.351Z,1011.41
2023-02-08T11:28:21.396Z,1011.40
2023-02-08T11:29:21.336Z,1011.38
2023-02-08T11:30:21.347Z,1011.31
2023-02-08T11:31:21.365Z,1011.21
2023-02-08T11:32:21.310Z,1011.18
2023-02-08T11:33:21.281Z,1011.21
2023-02-08T11:34:21.283Z,1011.19
2023-02-08T11:35:21.270Z,1011.24
2023-02-08T11:36:21.278Z,1011.20
2023-02-08T11:37:21.232Z,1011.17
2023-02-08T11:38:21.244Z,1011.19
2023-02-08T11:39:21.240Z,1011.14
2023-02-08T11:40:21.211Z,1011.20
2023-02-08T11:41:21.191Z,1011.14
2023-02-08T11:42:21.216Z,1011.15
2023-02-08T11:43:21.193Z,1011.15
2023-02-08T11:44:21.159Z,1011.02
2023-02-08T11:45:21.155Z,1011.14
2023-02-08T11:46:21.156Z,1011.11
2023-02-08T11:47:21.654Z,1011.11
2023-02-08T11:48:22.137Z,1011.07
2023-02-08T11:49:21.108Z,1011.02
2023-02-08T11:50:21.115Z,1011.03
2023-02-08T11:51:21.081Z,1011.00
2023-02-08T11:52:21.092Z,1011.00
2023-02-08T11:53:21.095Z,1010.96
2023-02-08T11:54:21.062Z,1010.94
2023-02-08T11:55:21.055Z,1010.90
2023-02-08T11:56:21.048Z,1010.89
2023-02-08T11:57:21.029Z,1010.92
2023-02-08T11:58:21.010Z,1010.98
2023-02-08T11:59:21.028Z,1010.95
2023-02-08T12:00:21.025Z,1010.93
2023-02-08T12:01:21.038Z,1010.82
2023-02-08T12:02:21.010Z,1010.88
2023-02-08T12:03:20.999Z,1010.86
2023-02-08T12:04:20.957Z,1010.87
2023-02-08T12:05:20.962Z,1010.90